Time;durP1;ratioP1;P1;durP2;ratioP2;P2;SDS_P1;SDS_P2;PMS_P1;PMS_P2;Temp;Humidity;BMP_temperature;BMP_pressure;BME280_temperature;BME280_humidity;BME280_pressure;Samples;Min_cycle;Max_cycle;Signal;HPM_P1;HPM_P2
2022/10/10 00:01:17;;;;;;;3.28;1.60;;;9.80;99.90;;;;;;5035098;28;20508;-85
2022/10/10 00:03:43;;;;;;;3.60;1.90;;;9.70;99.90;;;;;;5068047;28;20036;-84
2022/10/10 00:06:10;;;;;;;3.08;1.88;;;9.70;99.90;;;;;;5060303;28;20033;-85
2022/10/10 00:08:36;;;;;;;5.22;1.70;;;9.80;99.90;;;;;;5052101;28;20066;-85
2022/10/10 00:11:03;;;;;;;4.10;1.88;;;9.80;99.90;;;;;;5043424;28;20029;-84
2022/10/10 00:13:29;;;;;;;3.05;1.77;;;9.80;99.90;;;;;;5047961;28;20041;-84
2022/10/10 00:15:55;;;;;;;5.75;1.90;;;9.80;99.90;;;;;;5033631;28;20036;-86
2022/10/10 00:18:20;;;;;;;4.93;1.77;;;9.80;99.90;;;;;;5038087;28;20044;-84
2022/10/10 00:20:46;;;;;;;7.45;1.80;;;9.90;99.90;;;;;;5046523;28;20064;-84
2022/10/10 00:23:12;;;;;;;5.68;2.00;;;9.80;99.90;;;;;;5069051;28;20036;-84
2022/10/10 00:25:38;;;;;;;3.13;1.83;;;9.80;99.90;;;;;;5019198;28;20059;-85
2022/10/10 00:28:04;;;;;;;2.92;1.58;;;9.70;99.90;;;;;;5035246;28;20374;-84
2022/10/10 00:30:30;;;;;;;5.78;1.63;;;9.70;99.90;;;;;;5051478;28;20025;-84
2022/10/10 00:33:00;;;;;;;2.55;1.42;;;9.70;99.90;;;;;;5035189;28;20131;-85
2022/10/10 00:35:27;;;;;;;2.75;1.70;;;9.60;99.90;;;;;;5068668;28;20139;-84
2022/10/10 00:37:53;;;;;;;2.38;1.80;;;9.60;99.90;;;;;;5035672;28;20101;-84
2022/10/10 00:40:19;;;;;;;2.45;1.70;;;9.60;99.90;;;;;;5051252;28;20464;-84
2022/10/10 00:42:45;;;;;;;4.13;1.73;;;9.50;99.90;;;;;;5031658;28;20068;-84
2022/10/10 00:45:49;;;;;;;5.75;1.90;;;9.50;99.90;;;;;;5034899;28;20064;-85
2022/10/10 00:48:24;;;;;;;2.88;1.63;;;9.50;99.90;;;;;;5014408;28;20033;-84
2022/10/10 00:51:04;;;;;;;6.50;2.25;;;9.50;99.90;;;;;;5015124;28;20033;-85
2022/10/10 00:53:36;;;;;;;5.75;1.80;;;9.60;99.90;;;;;;5060357;28;20045;-86
2022/10/10 00:56:03;;;;;;;3.45;1.80;;;9.50;99.90;;;;;;5050883;28;20443;-84
2022/10/10 00:58:30;;;;;;;3.85;1.65;;;9.60;99.90;;;;;;5066559;28;20119;-84
2022/10/10 01:00:56;;;;;;;4.13;1.90;;;9.60;99.90;;;;;;5072088;28;20028;-84
2022/10/10 01:03:21;;;;;;;2.35;1.42;;;9.60;99.90;;;;;;5051508;28;20048;-84
2022/10/10 01:05:49;;;;;;;4.35;2.22;;;9.60;99.90;;;;;;5021923;28;20029;-84
2022/10/10 01:08:17;;;;;;;3.67;2.10;;;9.60;99.90;;;;;;5037816;28;20028;-85
2022/10/10 01:11:11;;;;;;;2.25;1.70;;;9.60;99.90;;;;;;5054873;28;20074;-85
2022/10/10 01:14:12;;;;;;;5.07;2.00;;;9.60;99.90;;;;;;5069734;28;20036;-85
2022/10/10 01:17:10;;;;;;;3.78;1.77;;;9.60;99.90;;;;;;5064110;28;20082;-84
2022/10/10 01:20:15;;;;;;;2.95;1.58;;;9.50;99.90;;;;;;5069937;28;20435;-84
2022/10/10 01:22:59;;;;;;;3.72;1.80;;;9.60;99.90;;;;;;5044227;28;20068;-84
2022/10/10 01:25:47;;;;;;;2.85;1.65;;;9.60;99.90;;;;;;5054208;28;20485;-85
2022/10/10 01:28:35;;;;;;;3.17;1.67;;;9.50;99.90;;;;;;5020835;28;20139;-85
2022/10/10 01:31:04;;;;;;;3.33;1.67;;;9.50;99.90;;;;;;5066015;28;20023;-84
2022/10/10 01:34:11;;;;;;;3.15;1.85;;;9.50;99.90;;;;;;5038007;28;20131;-85
2022/10/10 01:36:49;;;;;;;6.25;1.85;;;9.40;99.90;;;;;;5022075;28;20041;-85
2022/10/10 01:39:22;;;;;;;3.35;1.88;;;9.40;99.90;;;;;;5071831;28;20412;-84
2022/10/10 01:42:23;;;;;;;1.70;1.42;;;9.40;99.90;;;;;;5054557;28;20028;-85
2022/10/10 01:44:52;;;;;;;2.50;1.70;;;9.30;99.90;;;;;;5050660;28;20048;-84
2022/10/10 01:47:20;;;;;;;2.97;1.63;;;9.30;99.90;;;;;;5055096;28;20047;-84
2022/10/10 01:49:50;;;;;;;4.68;1.80;;;9.30;99.90;;;;;;5050717;28;20043;-85
2022/10/10 01:52:31;;;;;;;4.40;1.80;;;9.30;99.90;;;;;;5054370;28;20517;-84
2022/10/10 01:55:23;;;;;;;3.83;2.25;;;9.30;99.90;;;;;;5067891;28;20079;-85
2022/10/10 01:58:08;;;;;;;6.38;2.17;;;9.20;99.90;;;;;;5051332;28;20452;-84
2022/10/10 02:00:53;;;;;;;4.30;1.80;;;9.20;99.90;;;;;;5052620;28;20029;-84
2022/10/10 02:03:26;;;;;;;2.45;1.90;;;9.20;99.90;;;;;;5034301;28;20029;-85
2022/10/10 02:06:01;;;;;;;2.25;1.65;;;9.10;99.90;;;;;;5057184;28;20037;-86
2022/10/10 02:08:39;;;;;;;4.50;2.42;;;9.10;99.90;;;;;;5054953;28;20492;-85
2022/10/10 02:11:08;;;;;;;3.05;1.90;;;9.10;99.90;;;;;;5053877;28;20120;-85
2022/10/10 02:13:49;;;;;;;2.63;1.73;;;9.00;99.90;;;;;;5053441;28;20083;-84
2022/10/10 02:16:20;;;;;;;3.55;1.75;;;9.00;99.90;;;;;;5043530;28;20510;-84
2022/10/10 02:18:48;;;;;;;2.92;1.90;;;9.00;99.90;;;;;;5054414;28;20044;-84
2022/10/10 02:21:15;;;;;;;2.15;1.60;;;8.90;99.90;;;;;;5054226;28;20035;-85
2022/10/10 02:23:45;;;;;;;4.82;2.13;;;8.90;99.90;;;;;;5054395;28;20477;-85
2022/10/10 02:26:14;;;;;;;2.78;1.70;;;8.90;99.90;;;;;;5037179;28;20542;-86
2022/10/10 02:28:56;;;;;;;3.03;1.80;;;8.80;99.90;;;;;;5053497;28;20036;-85
2022/10/10 02:31:52;;;;;;;3.00;1.98;;;8.80;99.90;;;;;;5070670;28;20180;-85
2022/10/10 02:34:23;;;;;;;2.67;1.75;;;8.70;99.90;;;;;;5070476;28;20570;-85
2022/10/10 02:36:54;;;;;;;3.17;1.63;;;8.60;99.90;;;;;;5054052;28;20064;-85
2022/10/10 02:39:23;;;;;;;3.47;1.83;;;8.60;99.90;;;;;;5054186;28;20404;-85
2022/10/10 02:41:51;;;;;;;2.28;1.85;;;8.50;99.90;;;;;;5049857;28;20374;-87
2022/10/10 02:44:18;;;;;;;3.75;1.90;;;8.50;99.90;;;;;;5065881;28;20036;-85
2022/10/10 02:46:43;;;;;;;3.33;2.05;;;8.40;99.90;;;;;;5036714;28;20033;-86
2022/10/10 02:49:10;;;;;;;2.78;1.80;;;8.40;99.90;;;;;;5053746;28;20051;-85
2022/10/10 02:51:38;;;;;;;4.43;2.30;;;8.30;99.90;;;;;;5067907;28;20024;-85
2022/10/10 02:54:05;;;;;;;4.50;2.15;;;8.30;99.90;;;;;;5070182;28;20029;-87
2022/10/10 02:56:31;;;;;;;3.08;1.80;;;8.20;99.90;;;;;;5037059;28;20054;-85
2022/10/10 02:58:58;;;;;;;2.70;1.90;;;8.20;99.90;;;;;;5035083;28;20052;-85
2022/10/10 03:01:23;;;;;;;2.80;1.83;;;8.20;99.90;;;;;;5053213;28;20035;-85
2022/10/10 03:03:49;;;;;;;3.88;2.20;;;8.10;99.90;;;;;;5053368;28;20533;-85
2022/10/10 03:06:15;;;;;;;3.33;1.80;;;8.20;99.90;;;;;;5045209;28;20090;-85
2022/10/10 03:08:41;;;;;;;4.22;1.90;;;8.10;99.90;;;;;;5040746;28;20055;-85
2022/10/10 03:11:07;;;;;;;3.28;1.75;;;8.10;99.90;;;;;;5049158;28;20032;-85
2022/10/10 03:13:33;;;;;;;3.72;2.13;;;8.10;99.90;;;;;;5060759;28;20052;-85
2022/10/10 03:15:59;;;;;;;2.90;2.28;;;8.10;99.90;;;;;;5040312;28;20427;-85
2022/10/10 03:18:25;;;;;;;5.35;2.00;;;8.10;99.90;;;;;;5053315;28;20146;-87
2022/10/10 03:20:53;;;;;;;5.22;2.25;;;8.10;99.90;;;;;;5052500;28;20033;-86
2022/10/10 03:23:19;;;;;;;2.42;1.83;;;8.10;99.90;;;;;;5052975;28;20044;-85
2022/10/10 03:25:45;;;;;;;2.47;2.05;;;8.20;99.90;;;;;;5035596;28;20027;-85
2022/10/10 03:28:11;;;;;;;4.07;2.58;;;8.20;99.90;;;;;;5053355;28;20029;-85
2022/10/10 03:30:38;;;;;;;8.48;2.10;;;8.20;99.90;;;;;;5052067;28;20481;-86
2022/10/10 03:33:05;;;;;;;2.95;2.13;;;8.30;99.90;;;;;;5052586;28;20036;-85
2022/10/10 03:35:31;;;;;;;4.60;1.98;;;8.20;99.90;;;;;;5069248;28;20036;-87
2022/10/10 03:37:57;;;;;;;6.15;1.95;;;8.30;99.90;;;;;;5039325;28;20037;-85
2022/10/10 03:40:24;;;;;;;2.97;1.90;;;8.30;99.90;;;;;;5065753;28;20070;-86
2022/10/10 03:42:50;;;;;;;5.50;2.33;;;8.20;99.90;;;;;;5036076;28;20514;-85
2022/10/10 03:45:16;;;;;;;4.53;1.80;;;8.20;99.90;;;;;;5052506;28;20133;-85
2022/10/10 03:47:41;;;;;;;4.07;2.10;;;8.20;99.90;;;;;;5061439;28;20036;-86
2022/10/10 03:50:08;;;;;;;3.00;1.92;;;8.20;99.90;;;;;;5016661;28;20036;-86
2022/10/10 03:52:33;;;;;;;3.05;2.28;;;8.20;99.90;;;;;;5035539;28;20039;-85
2022/10/10 03:54:59;;;;;;;6.30;2.35;;;8.20;99.90;;;;;;5052250;28;20037;-84
2022/10/10 03:57:25;;;;;;;4.70;2.33;;;8.20;99.90;;;;;;5036407;28;20032;-85
2022/10/10 03:59:51;;;;;;;3.72;2.10;;;8.30;99.90;;;;;;5033843;28;20127;-85
2022/10/10 04:02:16;;;;;;;3.38;2.05;;;8.40;99.90;;;;;;5050790;28;20020;-85
2022/10/10 04:04:42;;;;;;;6.22;2.40;;;8.40;99.90;;;;;;5052734;28;20052;-85
2022/10/10 04:07:08;;;;;;;5.72;2.00;;;8.40;99.90;;;;;;5052789;28;20024;-86
2022/10/10 04:09:34;;;;;;;9.40;2.38;;;8.40;99.90;;;;;;5053231;28;20497;-86
2022/10/10 04:12:00;;;;;;;5.80;2.33;;;8.40;99.90;;;;;;5052925;28;20150;-85
2022/10/10 04:14:26;;;;;;;2.80;2.08;;;8.40;99.90;;;;;;5053548;28;20037;-87
2022/10/10 04:16:52;;;;;;;3.25;2.05;;;8.40;99.90;;;;;;5052616;28;20036;-86
2022/10/10 04:19:18;;;;;;;4.10;2.47;;;8.40;99.90;;;;;;5045076;28;20081;-86
2022/10/10 04:21:44;;;;;;;2.95;2.67;;;8.40;99.90;;;;;;5051795;28;20079;-85
2022/10/10 04:24:10;;;;;;;4.43;2.70;;;8.40;99.90;;;;;;5031433;28;20028;-85
2022/10/10 04:26:36;;;;;;;7.82;3.25;;;8.40;99.90;;;;;;5043263;28;20025;-85
2022/10/10 04:29:02;;;;;;;3.17;2.60;;;8.40;99.90;;;;;;5053988;28;20043;-85
2022/10/10 04:31:29;;;;;;;2.92;2.08;;;8.50;99.90;;;;;;5055858;28;20032;-86
2022/10/10 04:33:56;;;;;;;2.80;2.08;;;8.50;99.90;;;;;;5069174;28;20025;-85
2022/10/10 04:36:23;;;;;;;5.15;2.40;;;8.50;99.90;;;;;;5029938;28;20048;-86
2022/10/10 04:38:49;;;;;;;6.18;2.40;;;8.60;99.90;;;;;;5070419;28;20484;-86
2022/10/10 04:41:15;;;;;;;6.53;2.85;;;8.60;99.90;;;;;;5036062;28;20032;-86
2022/10/10 04:43:41;;;;;;;4.30;2.58;;;8.60;99.90;;;;;;5052348;28;20041;-84
2022/10/10 04:46:07;;;;;;;4.03;2.63;;;8.60;99.90;;;;;;5052130;28;20040;-85
2022/10/10 04:48:33;;;;;;;5.55;2.50;;;8.60;99.90;;;;;;5037565;28;20060;-84
2022/10/10 04:50:59;;;;;;;4.88;2.25;;;8.50;99.90;;;;;;5064782;28;20063;-85
2022/10/10 04:53:26;;;;;;;5.57;2.60;;;8.50;99.90;;;;;;5015687;28;20041;-84
2022/10/10 04:55:52;;;;;;;6.22;2.28;;;8.50;99.90;;;;;;5054815;28;20016;-86
2022/10/10 04:58:18;;;;;;;3.47;2.40;;;8.40;99.90;;;;;;5052757;28;20408;-85
2022/10/10 05:00:44;;;;;;;5.05;2.55;;;8.40;99.90;;;;;;5052275;28;20033;-86
2022/10/10 05:03:11;;;;;;;8.10;4.10;;;8.40;99.90;;;;;;5048662;28;20035;-85
2022/10/10 05:05:38;;;;;;;5.82;2.90;;;8.40;99.90;;;;;;5062586;28;20032;-84
2022/10/10 05:08:04;;;;;;;3.88;2.42;;;8.30;99.90;;;;;;5051868;28;20158;-85
2022/10/10 05:10:37;;;;;;;2.90;2.15;;;8.20;99.90;;;;;;5051170;28;20024;-85
2022/10/10 05:13:04;;;;;;;7.30;2.20;;;8.20;99.90;;;;;;5062429;28;20131;-85
2022/10/10 05:15:33;;;;;;;7.82;2.90;;;8.20;99.90;;;;;;5034596;28;20044;-85
2022/10/10 05:17:59;;;;;;;3.97;2.70;;;8.20;99.90;;;;;;5052114;28;20140;-85
2022/10/10 05:20:25;;;;;;;5.22;2.60;;;8.20;99.90;;;;;;5041406;28;20068;-85
2022/10/10 05:22:51;;;;;;;8.23;2.40;;;8.20;99.90;;;;;;5043745;28;20033;-85
2022/10/10 05:25:17;;;;;;;4.75;2.42;;;8.30;99.90;;;;;;5027481;28;20040;-85
2022/10/10 05:27:43;;;;;;;6.40;2.40;;;8.30;99.90;;;;;;5067440;28;20039;-87
2022/10/10 05:30:10;;;;;;;3.83;1.98;;;8.30;99.90;;;;;;5047563;28;20082;-87
2022/10/10 05:32:35;;;;;;;4.28;2.13;;;8.40;99.90;;;;;;5035726;28;20395;-84
2022/10/10 05:35:03;;;;;;;5.63;2.35;;;8.50;99.90;;;;;;5035629;28;20460;-85
2022/10/10 05:37:30;;;;;;;5.00;2.70;;;8.40;99.90;;;;;;5052614;28;20035;-85
2022/10/10 05:39:56;;;;;;;4.03;2.13;;;8.50;99.90;;;;;;5068381;28;20025;-85
2022/10/10 05:42:22;;;;;;;5.30;2.70;;;8.40;99.90;;;;;;5057400;28;20390;-86
2022/10/10 05:44:48;;;;;;;3.58;2.30;;;8.40;99.90;;;;;;5056957;28;20022;-85
2022/10/10 05:47:14;;;;;;;6.97;2.20;;;8.30;99.90;;;;;;5070417;28;20043;-84
2022/10/10 05:49:40;;;;;;;4.40;2.15;;;8.30;99.90;;;;;;5071288;28;20063;-85
2022/10/10 05:52:05;;;;;;;6.95;3.50;;;8.30;99.90;;;;;;5071695;28;20033;-85
2022/10/10 05:54:31;;;;;;;4.65;2.10;;;8.30;99.90;;;;;;5066442;28;20064;-85
2022/10/10 05:56:57;;;;;;;6.43;2.63;;;8.30;99.90;;;;;;5054570;28;20047;-85
2022/10/10 05:59:23;;;;;;;5.47;2.30;;;8.30;99.90;;;;;;5038279;28;20044;-84
2022/10/10 06:01:49;;;;;;;4.40;2.03;;;8.20;99.90;;;;;;5070132;28;20028;-85
2022/10/10 06:04:15;;;;;;;5.53;2.13;;;8.30;99.90;;;;;;5054590;28;20033;-84
2022/10/10 06:06:41;;;;;;;7.70;3.10;;;8.30;99.90;;;;;;5055007;28;20374;-84
2022/10/10 06:09:07;;;;;;;3.47;2.50;;;8.30;99.90;;;;;;5042813;28;20063;-84
2022/10/10 06:11:33;;;;;;;4.68;2.60;;;8.30;99.90;;;;;;5071154;28;20028;-85
2022/10/10 06:13:58;;;;;;;4.30;2.67;;;8.40;99.90;;;;;;5054243;28;20491;-84
2022/10/10 06:16:25;;;;;;;4.80;2.50;;;8.40;99.90;;;;;;5054588;28;20376;-85
2022/10/10 06:18:52;;;;;;;4.13;2.38;;;8.40;99.90;;;;;;5038353;28;20037;-84
2022/10/10 06:21:18;;;;;;;6.60;2.67;;;8.40;99.90;;;;;;5069537;28;20562;-86
2022/10/10 06:23:45;;;;;;;5.68;2.67;;;8.30;99.90;;;;;;5071923;28;20025;-85
2022/10/10 06:26:11;;;;;;;4.05;2.60;;;8.30;99.90;;;;;;5051370;28;20690;-85
2022/10/10 06:28:37;;;;;;;9.80;3.05;;;8.20;99.90;;;;;;5036387;28;20020;-85
2022/10/10 06:31:07;;;;;;;4.38;2.33;;;8.10;99.90;;;;;;5043667;28;20108;-85
2022/10/10 06:33:36;;;;;;;3.92;2.38;;;8.10;99.90;;;;;;5035957;28;20072;-84
2022/10/10 06:36:07;;;;;;;4.10;2.47;;;8.10;99.90;;;;;;5043373;28;20108;-84
2022/10/10 06:38:40;;;;;;;6.55;2.45;;;8.20;99.90;;;;;;5053417;28;20048;-85
2022/10/10 06:41:07;;;;;;;10.07;2.80;;;8.40;99.90;;;;;;5057377;28;20129;-84
2022/10/10 06:43:33;;;;;;;8.52;2.47;;;8.60;99.90;;;;;;5052987;28;20041;-85
2022/10/10 06:46:00;;;;;;;6.22;2.80;;;8.70;99.90;;;;;;5066873;28;20055;-85
2022/10/10 06:48:28;;;;;;;4.78;2.58;;;8.70;99.90;;;;;;5050472;28;20058;-84
2022/10/10 06:50:56;;;;;;;7.28;3.28;;;8.70;99.90;;;;;;5053048;28;20024;-84
2022/10/10 06:53:22;;;;;;;3.72;2.10;;;8.70;99.90;;;;;;5069795;28;20047;-85
2022/10/10 06:55:48;;;;;;;3.85;2.17;;;8.80;99.90;;;;;;5045492;28;20020;-84
2022/10/10 06:58:14;;;;;;;4.07;2.30;;;8.90;99.90;;;;;;5070823;28;20032;-85
2022/10/10 07:00:40;;;;;;;7.28;2.78;;;9.10;99.90;;;;;;5052932;28;20033;-85
2022/10/10 07:03:05;;;;;;;8.98;2.85;;;9.20;99.90;;;;;;5044697;28;20033;-85
2022/10/10 07:05:31;;;;;;;4.43;2.25;;;9.50;99.90;;;;;;5040965;28;20503;-85
2022/10/10 07:07:57;;;;;;;8.40;3.47;;;9.70;99.90;;;;;;5054039;28;20032;-85
2022/10/10 07:10:23;;;;;;;4.30;1.92;;;9.90;99.90;;;;;;5036668;28;20628;-84
2022/10/10 07:12:49;;;;;;;8.35;2.70;;;10.30;99.90;;;;;;5030672;28;20040;-85
2022/10/10 07:15:15;;;;;;;8.82;2.17;;;10.30;99.90;;;;;;5019961;28;20037;-85
2022/10/10 07:17:40;;;;;;;7.95;2.20;;;10.30;99.90;;;;;;5038031;28;20043;-85
2022/10/10 07:20:06;;;;;;;7.43;2.28;;;10.10;99.90;;;;;;5033425;28;20489;-85
2022/10/10 07:22:32;;;;;;;4.15;2.10;;;9.90;99.90;;;;;;5047066;28;20036;-85
2022/10/10 07:24:58;;;;;;;4.30;2.35;;;9.70;99.90;;;;;;5034145;28;20025;-85
2022/10/10 07:27:24;;;;;;;10.90;2.58;;;9.90;99.90;;;;;;5033430;28;20472;-85
2022/10/10 07:29:49;;;;;;;6.82;2.63;;;10.10;99.90;;;;;;5048524;28;20123;-85
2022/10/10 07:32:15;;;;;;;4.90;2.40;;;10.40;99.90;;;;;;5042851;28;20079;-85
2022/10/10 07:34:41;;;;;;;5.07;2.28;;;10.60;99.90;;;;;;5024816;28;20048;-85
2022/10/10 07:37:07;;;;;;;3.72;1.92;;;10.80;99.90;;;;;;5037959;28;20060;-88
2022/10/10 07:39:32;;;;;;;3.53;2.38;;;10.90;99.90;;;;;;5028448;28;20075;-85
2022/10/10 07:41:58;;;;;;;4.30;2.20;;;10.90;99.90;;;;;;5049121;28;20064;-87
2022/10/10 07:44:24;;;;;;;6.25;2.13;;;10.80;99.90;;;;;;5049762;28;20041;-87
2022/10/10 07:46:50;;;;;;;7.10;2.55;;;10.80;99.90;;;;;;5066588;28;20087;-85
2022/10/10 07:49:15;;;;;;;4.57;2.25;;;11.10;99.90;;;;;;5033231;28;20029;-85
2022/10/10 07:51:41;;;;;;;2.88;2.30;;;11.10;99.90;;;;;;5049597;28;20029;-85
2022/10/10 07:54:09;;;;;;;4.35;2.30;;;10.90;99.90;;;;;;5033016;28;20052;-86
2022/10/10 07:56:34;;;;;;;3.35;2.17;;;11.00;99.90;;;;;;5049398;28;20665;-85
2022/10/10 07:59:01;;;;;;;3.40;2.40;;;11.20;99.90;;;;;;5033727;28;20037;-85
2022/10/10 08:01:27;;;;;;;5.50;3.03;;;11.40;99.90;;;;;;5061552;28;20441;-85
2022/10/10 08:03:55;;;;;;;7.45;2.17;;;11.10;99.90;;;;;;5037108;28;20084;-88
2022/10/10 08:06:21;;;;;;;7.97;2.78;;;11.00;99.90;;;;;;5060671;28;20031;-86
2022/10/10 08:08:48;;;;;;;3.85;2.55;;;10.90;99.90;;;;;;5062558;28;20060;-85
2022/10/10 08:11:14;;;;;;;4.20;2.33;;;10.80;99.90;;;;;;5064061;28;20063;-87
2022/10/10 08:13:41;;;;;;;5.60;2.45;;;10.70;99.90;;;;;;5048380;28;20033;-85
2022/10/10 08:16:07;;;;;;;5.72;2.38;;;10.70;99.90;;;;;;5054395;28;20068;-85
2022/10/10 08:18:33;;;;;;;4.70;2.25;;;10.70;99.90;;;;;;5065878;28;20029;-85
2022/10/10 08:21:00;;;;;;;5.78;2.70;;;10.80;99.90;;;;;;5057439;28;20167;-86
2022/10/10 08:23:26;;;;;;;8.05;2.78;;;10.80;99.90;;;;;;5065370;28;20493;-85
2022/10/10 08:25:52;;;;;;;6.80;2.67;;;10.90;99.90;;;;;;5048924;28;20033;-86
2022/10/10 08:28:19;;;;;;;6.03;2.67;;;11.00;99.90;;;;;;5065562;28;20025;-85
2022/10/10 08:30:45;;;;;;;4.60;2.20;;;11.10;99.90;;;;;;5063358;28;20017;-85
2022/10/10 08:33:10;;;;;;;4.10;2.30;;;11.30;99.90;;;;;;5065532;28;20665;-86
2022/10/10 08:35:38;;;;;;;2.78;2.28;;;11.50;99.90;;;;;;5043276;28;20028;-87
2022/10/10 08:38:04;;;;;;;7.10;2.85;;;11.50;99.90;;;;;;5065447;28;20136;-87
2022/10/10 08:40:31;;;;;;;6.47;3.28;;;11.60;99.90;;;;;;5043768;28;20082;-85
2022/10/10 08:43:01;;;;;;;3.35;2.45;;;11.60;99.90;;;;;;5047728;28;20028;-85
2022/10/10 08:45:27;;;;;;;5.20;2.42;;;11.50;99.90;;;;;;5047508;28;20071;-87
2022/10/10 08:48:01;;;;;;;3.85;2.03;;;11.70;99.90;;;;;;5066327;28;20136;-85
2022/10/10 08:50:35;;;;;;;8.77;3.20;;;11.80;99.90;;;;;;5064689;28;20043;-86
2022/10/10 08:53:09;;;;;;;5.78;3.05;;;11.70;99.90;;;;;;5048110;28;20082;-85
2022/10/10 08:55:39;;;;;;;7.07;3.17;;;11.70;99.90;;;;;;5043867;28;20025;-86
2022/10/10 08:58:17;;;;;;;7.03;3.75;;;11.50;99.90;;;;;;5048955;28;20060;-88
2022/10/10 09:01:06;;;;;;;4.38;2.90;;;11.60;99.90;;;;;;5066408;28;20056;-87
2022/10/10 09:03:41;;;;;;;4.50;3.03;;;11.70;99.90;;;;;;5054527;28;20409;-85
2022/10/10 09:06:20;;;;;;;5.75;3.15;;;11.70;99.90;;;;;;5053361;28;20033;-87
2022/10/10 09:08:55;;;;;;;5.18;3.17;;;11.70;99.90;;;;;;5065197;28;20039;-85
2022/10/10 09:11:43;;;;;;;7.75;3.85;;;11.80;99.90;;;;;;5061311;28;20064;-87
2022/10/10 09:14:18;;;;;;;12.05;4.13;;;12.00;99.90;;;;;;5045080;28;20064;-85
2022/10/10 09:17:01;;;;;;;7.68;4.10;;;12.30;99.90;;;;;;5057477;28;20029;-86
2022/10/10 09:19:35;;;;;;;6.88;3.85;;;12.40;99.90;;;;;;5061973;28;20033;-85
2022/10/10 09:22:07;;;;;;;9.15;4.57;;;12.60;99.90;;;;;;5060699;28;20032;-86
2022/10/10 09:24:43;;;;;;;8.77;5.05;;;12.70;99.90;;;;;;5052345;28;20062;-86
2022/10/10 09:27:15;;;;;;;7.43;4.60;;;12.70;99.90;;;;;;5051681;28;20066;-86
2022/10/10 09:30:05;;;;;;;6.63;3.90;;;12.80;99.90;;;;;;5052278;28;20039;-86
2022/10/10 09:32:41;;;;;;;5.82;3.30;;;13.00;99.90;;;;;;5051458;28;20145;-86
2022/10/10 09:35:23;;;;;;;9.25;5.18;;;13.10;99.90;;;;;;5047297;28;20029;-86
2022/10/10 09:38:07;;;;;;;5.70;3.45;;;13.20;99.90;;;;;;5043703;28;20028;-86
2022/10/10 09:40:38;;;;;;;4.95;3.03;;;13.20;99.90;;;;;;5056946;28;20412;-86
2022/10/10 09:43:16;;;;;;;9.52;5.18;;;13.20;99.90;;;;;;5038554;28;20044;-86
2022/10/10 09:45:52;;;;;;;6.88;4.65;;;13.20;99.90;;;;;;5047537;28;20695;-88
2022/10/10 09:48:30;;;;;;;11.20;4.72;;;13.10;99.90;;;;;;5048909;28;20025;-87
2022/10/10 09:50:56;;;;;;;7.53;4.43;;;13.20;99.90;;;;;;5068295;28;20066;-86
2022/10/10 09:53:22;;;;;;;9.93;4.90;;;13.30;99.90;;;;;;5051914;28;20041;-86
2022/10/10 09:55:50;;;;;;;6.43;3.90;;;13.40;99.90;;;;;;5047724;28;20067;-86
2022/10/10 09:58:41;;;;;;;6.70;3.55;;;13.50;99.90;;;;;;5051207;28;20063;-86
2022/10/10 10:01:18;;;;;;;8.60;4.32;;;13.50;99.90;;;;;;5065427;28;20020;-87
2022/10/10 10:04:04;;;;;;;7.65;5.00;;;13.70;99.90;;;;;;5068583;28;20521;-84
2022/10/10 10:06:30;;;;;;;5.32;4.25;;;13.60;99.90;;;;;;5067968;28;20112;-85
2022/10/10 10:09:01;;;;;;;7.75;4.60;;;13.50;99.90;;;;;;5023454;28;20132;-85
2022/10/10 10:11:35;;;;;;;9.02;4.32;;;13.60;99.90;;;;;;5048848;28;20032;-86
2022/10/10 10:14:02;;;;;;;7.20;4.40;;;13.70;99.90;;;;;;5044831;28;20025;-89
2022/10/10 10:16:36;;;;;;;6.65;4.63;;;13.70;99.90;;;;;;5053372;28;20032;-86
2022/10/10 10:19:02;;;;;;;10.35;4.72;;;13.80;99.90;;;;;;5049072;28;20036;-88
2022/10/10 10:21:29;;;;;;;8.30;4.88;;;13.90;99.90;;;;;;5051998;28;20052;-85
2022/10/10 10:23:59;;;;;;;7.43;4.30;;;14.00;99.90;;;;;;5049656;28;20060;-87
2022/10/10 10:26:41;;;;;;;7.63;4.68;;;14.10;99.90;;;;;;5072947;28;20025;-86
2022/10/10 10:29:28;;;;;;;8.90;4.72;;;14.20;99.90;;;;;;5017794;28;20029;-85
2022/10/10 10:32:17;;;;;;;10.35;5.22;;;14.30;99.90;;;;;;5056920;28;20035;-88
2022/10/10 10:35:02;;;;;;;8.13;5.07;;;14.40;99.90;;;;;;5070871;28;20037;-86
2022/10/10 10:38:06;;;;;;;10.63;5.82;;;14.40;99.90;;;;;;5067072;28;20401;-85
2022/10/10 10:40:44;;;;;;;8.82;5.78;;;14.40;99.90;;;;;;5075345;28;20040;-85
2022/10/10 10:43:16;;;;;;;9.80;5.00;;;14.50;99.90;;;;;;5069536;28;20680;-86
2022/10/10 10:46:01;;;;;;;8.88;5.25;;;14.60;99.90;;;;;;5044593;28;20036;-86
2022/10/10 10:48:43;;;;;;;12.25;6.32;;;14.70;99.90;;;;;;5068397;28;20659;-86
2022/10/10 10:51:35;;;;;;;8.88;5.55;;;14.70;99.90;;;;;;5052389;28;20119;-86
2022/10/10 10:54:33;;;;;;;8.43;4.97;;;14.70;99.90;;;;;;5047189;28;20101;-86
2022/10/10 10:57:12;;;;;;;9.55;4.90;;;14.80;99.90;;;;;;5058274;28;20063;-85
2022/10/10 11:00:10;;;;;;;7.25;4.72;;;14.80;99.90;;;;;;5056757;28;20047;-85
2022/10/10 11:03:04;;;;;;;6.72;4.20;;;14.80;99.90;;;;;;5029426;28;20139;-85
2022/10/10 11:05:29;;;;;;;6.97;4.30;;;14.90;99.90;;;;;;5063095;28;20032;-85
2022/10/10 11:08:14;;;;;;;6.43;4.47;;;14.90;99.90;;;;;;5042927;28;20400;-85
2022/10/10 11:11:04;;;;;;;6.32;4.63;;;15.10;99.90;;;;;;5045089;28;20028;-84
2022/10/10 11:13:47;;;;;;;6.88;4.22;;;15.10;99.90;;;;;;5063567;28;20016;-85
2022/10/10 11:16:34;;;;;;;6.82;3.60;;;15.20;99.90;;;;;;5057661;28;20457;-86
2022/10/10 11:19:18;;;;;;;7.68;3.10;;;15.30;99.90;;;;;;5039190;28;20032;-86
2022/10/10 11:21:48;;;;;;;5.30;3.55;;;15.30;99.90;;;;;;5063880;28;20028;-85
2022/10/10 11:24:31;;;;;;;6.18;3.47;;;15.30;99.90;;;;;;5064591;28;20033;-86
2022/10/10 11:27:03;;;;;;;5.13;3.47;;;15.30;99.90;;;;;;5041640;28;20048;-86
2022/10/10 11:29:34;;;;;;;6.72;3.75;;;15.30;99.90;;;;;;5051748;28;20028;-86
2022/10/10 11:32:05;;;;;;;7.75;5.53;;;15.30;99.90;;;;;;5060524;28;20036;-86
2022/10/10 11:34:51;;;;;;;3.20;2.90;;;15.30;99.90;;;;;;5041049;28;20039;-86
2022/10/10 11:37:23;;;;;;;4.78;3.00;;;15.30;99.90;;;;;;5074784;28;20158;-86
2022/10/10 11:40:01;;;;;;;4.75;3.00;;;15.40;99.90;;;;;;5068039;28;20028;-85
2022/10/10 11:42:39;;;;;;;3.80;2.67;;;15.50;99.90;;;;;;5051487;28;20028;-86
2022/10/10 11:45:15;;;;;;;4.93;2.78;;;15.50;99.90;;;;;;5067849;28;20098;-86
2022/10/10 11:47:47;;;;;;;6.88;3.78;;;15.60;99.90;;;;;;5015263;28;20065;-85
2022/10/10 11:50:28;;;;;;;10.30;3.03;;;15.60;99.90;;;;;;5032550;28;20473;-86
2022/10/10 11:53:25;;;;;;;4.65;2.72;;;15.60;99.90;;;;;;5051294;28;20619;-86
2022/10/10 11:56:00;;;;;;;5.65;2.92;;;15.60;99.90;;;;;;5067814;28;20020;-86
2022/10/10 11:58:35;;;;;;;5.40;2.65;;;15.60;99.90;;;;;;5051479;28;20054;-86
2022/10/10 12:01:38;;;;;;;4.78;2.83;;;15.70;99.90;;;;;;5068874;28;20020;-85
2022/10/10 12:04:04;;;;;;;4.88;3.13;;;15.90;99.90;;;;;;5049552;28;20052;-86
2022/10/10 12:06:43;;;;;;;7.07;3.03;;;16.00;99.90;;;;;;5067667;28;20046;-86
2022/10/10 12:09:21;;;;;;;7.68;2.92;;;16.10;99.90;;;;;;5051316;28;20059;-86
2022/10/10 12:12:09;;;;;;;4.47;2.22;;;16.30;99.90;;;;;;5051242;28;20070;-87
2022/10/10 12:14:38;;;;;;;8.15;2.83;;;16.40;99.90;;;;;;5051066;28;20029;-85
2022/10/10 12:17:18;;;;;;;4.13;2.20;;;16.50;99.90;;;;;;5031834;28;20080;-86
2022/10/10 12:19:47;;;;;;;2.60;2.17;;;16.60;99.90;;;;;;5031651;28;20033;-85
2022/10/10 12:22:23;;;;;;;6.22;2.38;;;16.80;99.90;;;;;;5064596;28;20279;-86
2022/10/10 12:25:09;;;;;;;3.00;2.20;;;16.80;99.90;;;;;;5051141;28;20044;-86
2022/10/10 12:28:00;;;;;;;4.22;2.58;;;16.80;99.90;;;;;;5051357;28;20028;-86
2022/10/10 12:30:26;;;;;;;7.10;2.80;;;16.80;99.90;;;;;;5050773;28;20036;-86
2022/10/10 12:32:54;;;;;;;7.93;4.40;;;16.80;99.90;;;;;;5050768;28;20040;-86
2022/10/10 12:35:46;;;;;;;5.68;3.47;;;16.70;99.90;;;;;;5068553;28;20039;-86
2022/10/10 12:38:11;;;;;;;4.97;2.60;;;16.70;99.90;;;;;;5044869;28;20056;-85
2022/10/10 12:40:56;;;;;;;8.60;3.35;;;16.70;99.90;;;;;;5067281;28;20021;-86
2022/10/10 12:43:50;;;;;;;5.10;2.60;;;16.60;99.90;;;;;;5050696;28;20189;-85
2022/10/10 12:46:27;;;;;;;4.80;2.55;;;16.70;99.90;;;;;;5050176;28;20107;-86
2022/10/10 12:49:23;;;;;;;2.95;2.42;;;16.80;99.90;;;;;;5030848;28;20120;-86
2022/10/10 12:52:19;;;;;;;4.82;2.72;;;16.80;99.90;;;;;;5042243;28;20041;-87
2022/10/10 12:54:45;;;;;;;5.15;2.72;;;16.80;99.90;;;;;;5036327;28;20039;-86
2022/10/10 12:57:35;;;;;;;6.55;2.90;;;16.90;99.90;;;;;;5047897;28;20104;-86
2022/10/10 13:00:21;;;;;;;5.47;2.42;;;16.90;99.90;;;;;;5035188;28;20037;-86
2022/10/10 13:03:01;;;;;;;4.35;2.67;;;16.90;99.90;;;;;;5067928;28;20499;-86
2022/10/10 13:05:30;;;;;;;5.55;2.13;;;17.00;99.90;;;;;;5053728;28;20556;-87
2022/10/10 13:08:01;;;;;;;5.90;2.88;;;16.90;99.90;;;;;;5034997;28;20115;-86
2022/10/10 13:10:29;;;;;;;10.32;3.38;;;16.90;99.90;;;;;;5036254;28;20499;-86
2022/10/10 13:13:01;;;;;;;3.58;2.45;;;16.80;99.90;;;;;;5051914;28;20078;-86
2022/10/10 13:15:28;;;;;;;5.78;2.42;;;16.80;99.90;;;;;;5070455;28;20032;-88
2022/10/10 13:17:54;;;;;;;5.60;2.58;;;16.70;99.90;;;;;;5054184;28;20033;-86